Holandia — V2OF5 — position and weather

sailwx.info

Track history (hours):
 
Tides and Currents Weather Stations Pressure Air Temp Water Temp Dewpoint Dewpoint Depression Visibility Wind Speed Wind Dir Waves Ship Positions

Holandia

Last reported at 2018-Jun-23 21:20 UTC. Time now 2018-Jun-23 21:36 UTC.
Position N 38°55' E 000°32'.

Length 132 m; draft 7.5 m.

Type: Cargo ship. MMSI: 304134000.

Date/timePositionNaut miles runAvg speedWind from/ knotsBaromVisibWave heightAir tempDewpointWater temp
2018-Jun-23 21:20N 38°55' E 000°32'1910.3
2018-Jun-23 19:31N 38°44' E 000°51'110.1
2018-Jun-23 19:25N 38°43' E 000°52'410.2
2018-Jun-23 19:00N 38°40' E 000°56'1410.3
2018-Jun-23 17:41N 38°35' E 001°12'711.1
2018-Jun-23 17:02N 38°33' E 001°21'011.0
2018-Jun-23 17:00N 38°33' E 001°21'1810.9
2018-Jun-23 15:20N 38°28' E 001°44'7610.8
2018-Jun-23 08:19N 38°16' E 003°19'410.8
2018-Jun-23 07:55N 38°16' E 003°24'510.8
2018-Jun-23 07:29N 38°15' E 003°30'910.9
2018-Jun-23 06:40N 38°14' E 003°41'410.9
2018-Jun-23 06:20N 38°13' E 003°46'1010.8
2018-Jun-23 05:25N 38°12' E 003°59'510.9
2018-Jun-23 05:00N 38°11' E 004°04'611.2
2018-Jun-23 04:30N 38°10' E 004°11'611.2
2018-Jun-23 03:59N 38°10' E 004°19'611.3
2018-Jun-23 03:30N 38°09' E 004°26'611.5
2018-Jun-23 03:00N 38°08' E 004°33'611.7
2018-Jun-23 02:30N 38°07' E 004°40'611.8
2018-Jun-23 01:59N 38°06' E 004°48'611.6
2018-Jun-23 01:30N 38°06' E 004°55'711.6
2018-Jun-23 00:56N 38°05' E 005°03'511.7
2018-Jun-23 00:30N 38°04' E 005°10'611.6
2018-Jun-23 00:00N 38°03' E 005°17'2311.3
2018-Jun-22 21:58N 38°00' E 005°46'  
Track history (hours):
 
Tides and Currents Weather Stations Pressure Air Temp Water Temp Dewpoint Dewpoint Depression Visibility Wind Speed Wind Dir Waves Ship Positions

Holandia

Last reported at 2018-Jun-23 21:20 UTC. Time now 2018-Jun-23 21:36 UTC.
Position N 38°55' E 000°32'.

Length 132 m; draft 7.5 m.

Type: Cargo ship. MMSI: 304134000.

Date/timePositionNaut miles runAvg speedWind from/ knotsBaromVisibWave heightAir tempDewpointWater temp
2018-Jun-23 21:20N 38°55' E 000°32'1910.3
2018-Jun-23 19:31N 38°44' E 000°51'110.1
2018-Jun-23 19:25N 38°43' E 000°52'410.2
2018-Jun-23 19:00N 38°40' E 000°56'1410.3
2018-Jun-23 17:41N 38°35' E 001°12'711.1
2018-Jun-23 17:02N 38°33' E 001°21'011.0
2018-Jun-23 17:00N 38°33' E 001°21'1810.9
2018-Jun-23 15:20N 38°28' E 001°44'7610.8
2018-Jun-23 08:19N 38°16' E 003°19'410.8
2018-Jun-23 07:55N 38°16' E 003°24'510.8
2018-Jun-23 07:29N 38°15' E 003°30'910.9
2018-Jun-23 06:40N 38°14' E 003°41'410.9
2018-Jun-23 06:20N 38°13' E 003°46'1010.8
2018-Jun-23 05:25N 38°12' E 003°59'510.9
2018-Jun-23 05:00N 38°11' E 004°04'611.2
2018-Jun-23 04:30N 38°10' E 004°11'611.2
2018-Jun-23 03:59N 38°10' E 004°19'611.3
2018-Jun-23 03:30N 38°09' E 004°26'611.5
2018-Jun-23 03:00N 38°08' E 004°33'611.7
2018-Jun-23 02:30N 38°07' E 004°40'611.8
2018-Jun-23 01:59N 38°06' E 004°48'611.6
2018-Jun-23 01:30N 38°06' E 004°55'711.6
2018-Jun-23 00:56N 38°05' E 005°03'511.7
2018-Jun-23 00:30N 38°04' E 005°10'611.6
2018-Jun-23 00:00N 38°03' E 005°17'2311.3
2018-Jun-22 21:58N 38°00' E 005°46'  

Dump ship's entire track history